createdAt,value
2023-05-01T00:01:01.400Z,14.53
2023-05-01T00:03:29.525Z,15.30
2023-05-01T00:06:05.440Z,15.87
2023-05-01T00:08:33.120Z,18.40
2023-05-01T00:11:04.832Z,21.77
2023-05-01T00:13:34.422Z,15.40
2023-05-01T00:16:01.807Z,16.70
2023-05-01T00:18:30.982Z,18.67
2023-05-01T00:20:58.228Z,13.63
2023-05-01T00:23:28.573Z,12.77
2023-05-01T00:25:55.761Z,11.47
2023-05-01T00:28:22.975Z,12.63
2023-05-01T00:30:50.270Z,11.23
2023-05-01T00:33:17.808Z,12.77
2023-05-01T00:35:46.167Z,10.10
2023-05-01T00:38:13.927Z,14.07
2023-05-01T00:40:45.393Z,14.87
2023-05-01T00:43:13.556Z,11.30
2023-05-01T00:45:43.614Z,11.87
2023-05-01T00:48:11.590Z,12.40
2023-05-01T00:50:40.127Z,11.97
2023-05-01T00:53:07.564Z,10.90
2023-05-01T00:55:36.236Z,12.37
2023-05-01T00:58:04.284Z,8.63
2023-05-01T01:00:31.532Z,12.07
2023-05-01T01:02:59.126Z,11.23
2023-05-01T01:05:30.838Z,12.27
2023-05-01T01:07:58.581Z,12.07
2023-05-01T01:10:52.656Z,10.27
2023-05-01T01:13:33.511Z,12.53
2023-05-01T01:16:14.290Z,16.20
2023-05-01T01:18:50.950Z,13.23
2023-05-01T01:21:54.863Z,12.43
2023-05-01T01:24:39.722Z,16.13
2023-05-01T01:27:28.521Z,9.67
2023-05-01T01:30:35.264Z,10.57
2023-05-01T01:33:14.835Z,9.40
2023-05-01T01:35:47.580Z,11.47
2023-05-01T01:38:21.190Z,10.87
2023-05-01T01:40:57.636Z,8.13
2023-05-01T01:43:27.674Z,8.27
2023-05-01T01:46:00.973Z,7.83
2023-05-01T01:48:35.383Z,9.47
2023-05-01T01:51:09.611Z,13.43
2023-05-01T01:53:39.946Z,13.27
2023-05-01T01:56:09.158Z,12.93
2023-05-01T01:58:39.453Z,12.23
2023-05-01T02:01:08.277Z,18.40
2023-05-01T02:03:37.686Z,13.57
2023-05-01T02:06:06.989Z,12.10
2023-05-01T02:08:36.858Z,11.90
2023-05-01T02:11:05.398Z,11.70
2023-05-01T02:13:34.331Z,11.40
2023-05-01T02:16:04.304Z,11.47
2023-05-01T02:18:32.726Z,8.77
2023-05-01T02:21:01.493Z,8.23
2023-05-01T02:23:31.228Z,8.07
2023-05-01T02:26:01.091Z,9.63
2023-05-01T02:28:30.649Z,10.20
2023-05-01T02:30:59.357Z,10.07
2023-05-01T02:33:26.819Z,9.57
2023-05-01T02:35:54.072Z,9.53
2023-05-01T02:38:21.854Z,10.47
2023-05-01T02:40:52.646Z,12.60
2023-05-01T02:43:23.034Z,10.20
2023-05-01T02:45:52.585Z,10.83
2023-05-01T02:48:25.007Z,13.13
2023-05-01T02:50:54.332Z,8.90
2023-05-01T02:53:22.805Z,9.80
2023-05-01T02:55:51.058Z,14.70
2023-05-01T02:58:20.337Z,18.63
2023-05-01T03:00:53.187Z,16.70
2023-05-01T03:03:20.672Z,18.27
2023-05-01T03:05:48.250Z,12.17
2023-05-01T03:08:15.781Z,11.13
2023-05-01T03:10:43.562Z,11.03
2023-05-01T03:13:11.860Z,17.93
2023-05-01T03:15:39.756Z,20.47
2023-05-01T03:18:07.480Z,21.17
2023-05-01T03:20:34.854Z,16.77
2023-05-01T03:23:02.962Z,17.77
2023-05-01T03:25:30.442Z,12.77
2023-05-01T03:27:57.823Z,15.23
2023-05-01T03:30:25.131Z,10.03
2023-05-01T03:32:52.716Z,14.90
2023-05-01T03:35:20.619Z,10.07
2023-05-01T03:37:48.171Z,12.83
2023-05-01T03:40:15.873Z,8.50
2023-05-01T03:42:43.125Z,11.57
2023-05-01T03:45:11.312Z,12.20
2023-05-01T03:47:39.010Z,10.93
2023-05-01T03:50:06.912Z,9.97
2023-05-01T03:52:34.850Z,9.30
2023-05-01T03:55:02.596Z,12.00
2023-05-01T03:57:29.922Z,14.93
2023-05-01T03:59:57.871Z,9.83
2023-05-01T04:02:25.519Z,15.30
2023-05-01T04:04:52.956Z,12.30
2023-05-01T04:07:20.324Z,10.90
2023-05-01T04:09:48.659Z,12.20
2023-05-01T04:12:16.141Z,12.90
2023-05-01T04:14:44.807Z,12.57
2023-05-01T04:17:12.212Z,15.03
2023-05-01T04:19:39.765Z,11.60
2023-05-01T04:22:08.390Z,12.90
2023-05-01T04:24:36.802Z,18.70
2023-05-01T04:27:04.965Z,15.33
2023-05-01T04:29:32.937Z,11.73
2023-05-01T04:32:00.509Z,15.80
2023-05-01T04:34:31.227Z,15.93
2023-05-01T04:36:58.717Z,17.13
2023-05-01T04:39:27.605Z,18.47
2023-05-01T04:41:55.157Z,69.60
2023-05-01T04:44:22.592Z,53.50
2023-05-01T04:46:50.260Z,55.27
2023-05-01T04:49:17.985Z,72.67
2023-05-01T04:51:46.176Z,50.93
2023-05-01T04:54:13.527Z,57.50
2023-05-01T04:56:40.807Z,37.80
2023-05-01T04:59:08.346Z,22.83
2023-05-01T05:01:35.764Z,46.73
2023-05-01T05:04:03.325Z,24.13
2023-05-01T05:06:31.702Z,21.17
2023-05-01T05:08:59.128Z,21.43
2023-05-01T05:11:27.504Z,20.20
2023-05-01T05:13:54.822Z,15.33
2023-05-01T05:16:23.018Z,16.37
2023-05-01T05:18:50.384Z,18.10
2023-05-01T05:21:17.637Z,19.53
2023-05-01T05:23:45.082Z,20.57
2023-05-01T05:26:12.358Z,20.00
2023-05-01T05:28:39.724Z,15.73
2023-05-01T05:31:07.482Z,21.30
2023-05-01T05:33:35.718Z,13.90
2023-05-01T05:36:03.995Z,18.50
2023-05-01T05:38:31.629Z,16.17
2023-05-01T05:41:00.807Z,17.07
2023-05-01T05:43:32.721Z,16.33
2023-05-01T05:46:00.399Z,17.30
2023-05-01T05:48:31.069Z,15.93
2023-05-01T05:50:58.456Z,15.00
2023-05-01T05:53:26.618Z,18.47
2023-05-01T05:55:54.176Z,18.57
2023-05-01T05:58:21.859Z,19.00
2023-05-01T06:00:50.356Z,15.20
2023-05-01T06:03:19.115Z,17.90
2023-05-01T06:05:46.692Z,14.50
2023-05-01T06:08:14.846Z,16.47
2023-05-01T06:10:45.504Z,16.80
2023-05-01T06:13:14.889Z,17.10
2023-05-01T06:15:42.759Z,17.50
2023-05-01T06:18:11.104Z,20.67
2023-05-01T06:20:39.336Z,15.77
2023-05-01T06:23:08.809Z,17.97
2023-05-01T06:25:37.603Z,21.80
2023-05-01T06:28:06.389Z,18.77
2023-05-01T06:30:33.753Z,21.13
2023-05-01T06:33:01.275Z,16.83
2023-05-01T06:35:28.979Z,22.17
2023-05-01T06:37:56.507Z,45.57
2023-05-01T06:40:23.866Z,20.93
2023-05-01T06:42:51.269Z,18.47
2023-05-01T06:45:18.955Z,14.83
2023-05-01T06:47:46.323Z,16.77
2023-05-01T06:50:14.286Z,11.43
2023-05-01T06:52:42.526Z,15.10
2023-05-01T06:55:11.318Z,15.77
2023-05-01T06:57:40.610Z,15.03
2023-05-01T07:00:08.475Z,15.67
2023-05-01T07:02:39.487Z,23.40
2023-05-01T07:05:07.728Z,8.03
2023-05-01T07:07:35.229Z,13.17
2023-05-01T07:10:03.154Z,11.70
2023-05-01T07:12:31.806Z,13.37
2023-05-01T07:14:59.175Z,11.60
2023-05-01T07:17:28.201Z,17.33
2023-05-01T07:19:55.723Z,17.73
2023-05-01T07:22:23.325Z,10.43
2023-05-01T07:24:50.665Z,11.07
2023-05-01T07:27:19.015Z,12.83
2023-05-01T07:29:46.510Z,6.80
2023-05-01T07:32:14.811Z,9.90
2023-05-01T07:34:42.119Z,9.03
2023-05-01T07:37:09.369Z,6.13
2023-05-01T07:39:36.761Z,10.77
2023-05-01T07:42:04.214Z,14.50
2023-05-01T07:44:31.645Z,15.93
2023-05-01T07:47:04.920Z,16.10
2023-05-01T07:49:38.130Z,9.27
2023-05-01T07:52:09.307Z,12.10
2023-05-01T07:54:37.216Z,10.73
2023-05-01T07:57:07.153Z,12.03
2023-05-01T07:59:34.706Z,6.23
2023-05-01T08:02:02.182Z,9.17
2023-05-01T08:04:30.283Z,7.50
2023-05-01T08:06:57.967Z,12.43
2023-05-01T08:09:25.674Z,11.30
2023-05-01T08:11:53.016Z,8.77
2023-05-01T08:14:20.374Z,11.67
2023-05-01T08:16:48.098Z,8.53
2023-05-01T08:19:16.412Z,7.40
2023-05-01T08:21:43.864Z,10.10
2023-05-01T08:24:11.426Z,12.07
2023-05-01T08:26:38.935Z,8.47
2023-05-01T08:29:06.414Z,13.90
2023-05-01T08:31:38.085Z,8.07
2023-05-01T08:34:06.655Z,10.20
2023-05-01T08:36:35.038Z,8.13
2023-05-01T08:39:02.509Z,7.87
2023-05-01T08:41:31.655Z,9.20
2023-05-01T08:44:04.433Z,6.80
2023-05-01T08:46:58.094Z,9.20
2023-05-01T08:49:28.253Z,7.83
2023-05-01T08:51:57.319Z,12.73
2023-05-01T08:54:28.532Z,8.87
2023-05-01T08:56:58.398Z,10.70
2023-05-01T08:59:28.926Z,9.23
2023-05-01T09:01:57.392Z,12.17
2023-05-01T09:04:25.979Z,9.83
2023-05-01T09:06:55.861Z,7.57
2023-05-01T09:09:23.183Z,8.70
2023-05-01T09:11:51.438Z,5.27
2023-05-01T09:14:19.328Z,8.27
2023-05-01T09:16:46.750Z,7.30
2023-05-01T09:19:14.207Z,9.10
2023-05-01T09:21:42.042Z,9.40
2023-05-01T09:24:09.361Z,9.13
2023-05-01T09:26:46.475Z,12.30
2023-05-01T09:29:29.582Z,8.60
2023-05-01T09:32:23.851Z,11.88
2023-05-01T09:34:52.676Z,10.20
2023-05-01T09:37:31.670Z,6.68
2023-05-01T09:40:14.517Z,5.65
2023-05-01T09:42:53.516Z,4.40
2023-05-01T09:45:21.137Z,5.43
2023-05-01T09:47:48.972Z,6.93
2023-05-01T09:50:34.758Z,7.07
2023-05-01T09:53:05.088Z,5.23
2023-05-01T09:55:33.154Z,6.78
2023-05-01T09:58:03.726Z,6.32
2023-05-01T10:00:31.610Z,6.50
2023-05-01T10:02:59.609Z,6.55
2023-05-01T10:05:28.302Z,6.38
2023-05-01T10:08:01.263Z,6.87
2023-05-01T10:10:29.244Z,7.93
2023-05-01T10:12:57.068Z,7.30
2023-05-01T10:15:38.155Z,5.90
2023-05-01T10:18:05.547Z,6.55
2023-05-01T10:20:32.930Z,8.98
2023-05-01T10:23:01.869Z,5.40
2023-05-01T10:25:30.593Z,6.05
2023-05-01T10:27:59.630Z,8.30
2023-05-01T10:30:27.294Z,5.80
2023-05-01T10:32:55.478Z,5.65
2023-05-01T10:35:29.856Z,4.32
2023-05-01T10:38:02.473Z,6.50
2023-05-01T10:40:49.668Z,5.50
2023-05-01T10:43:18.456Z,6.35
2023-05-01T10:45:47.144Z,11.50
2023-05-01T10:48:41.371Z,10.20
2023-05-01T10:51:25.712Z,8.20
2023-05-01T10:54:13.226Z,12.38
2023-05-01T10:56:41.703Z,4.65
2023-05-01T10:59:09.468Z,6.57
2023-05-01T11:01:41.905Z,10.88
2023-05-01T11:04:48.735Z,3.85
2023-05-01T11:07:18.582Z,5.32
2023-05-01T11:09:49.580Z,10.05
2023-05-01T11:12:46.421Z,9.40
2023-05-01T11:15:27.846Z,5.57
2023-05-01T11:17:57.242Z,7.78
2023-05-01T11:20:30.300Z,7.38
2023-05-01T11:22:58.600Z,5.85
2023-05-01T11:25:28.486Z,7.15
2023-05-01T11:27:58.182Z,7.45
2023-05-01T11:30:26.541Z,7.10
2023-05-01T11:32:54.399Z,7.20
2023-05-01T11:35:24.679Z,8.52
2023-05-01T11:37:52.551Z,5.72
2023-05-01T11:40:30.314Z,7.13
2023-05-01T11:43:06.447Z,4.93
2023-05-01T11:45:35.225Z,5.18
2023-05-01T11:48:04.580Z,2.53
2023-05-01T11:50:37.551Z,4.50
2023-05-01T11:53:13.597Z,5.15
2023-05-01T11:55:41.604Z,6.55
2023-05-01T11:58:09.337Z,3.72
2023-05-01T12:00:45.835Z,5.00
2023-05-01T12:03:15.192Z,6.05
2023-05-01T12:05:44.876Z,5.05
2023-05-01T12:08:22.684Z,6.28
2023-05-01T12:10:58.245Z,3.20
2023-05-01T12:13:27.911Z,8.45
2023-05-01T12:15:56.614Z,6.18
2023-05-01T12:18:25.457Z,4.75
2023-05-01T12:20:55.566Z,6.13
2023-05-01T12:23:40.233Z,4.18
2023-05-01T12:26:24.065Z,3.17
2023-05-01T12:29:00.639Z,7.78
2023-05-01T12:31:29.536Z,5.00
2023-05-01T12:33:58.822Z,5.93
2023-05-01T12:36:28.726Z,5.15
2023-05-01T12:39:01.311Z,3.97
2023-05-01T12:41:38.583Z,5.97
2023-05-01T12:44:27.068Z,6.90
2023-05-01T12:47:03.501Z,4.18
2023-05-01T12:49:36.622Z,4.60
2023-05-01T12:52:06.623Z,3.97
2023-05-01T12:54:38.119Z,3.53
2023-05-01T12:57:14.933Z,7.93
2023-05-01T12:59:47.545Z,6.38
2023-05-01T13:02:17.688Z,8.90
2023-05-01T13:04:47.446Z,4.50
2023-05-01T13:07:19.748Z,6.45
2023-05-01T13:09:58.728Z,10.30
2023-05-01T13:12:28.548Z,6.45
2023-05-01T13:14:56.748Z,5.93
2023-05-01T13:17:29.673Z,6.47
2023-05-01T13:19:58.196Z,5.25
2023-05-01T13:22:35.870Z,6.78
2023-05-01T13:25:15.599Z,9.70
2023-05-01T13:27:47.895Z,15.18
2023-05-01T13:30:16.399Z,7.78
2023-05-01T13:32:46.769Z,5.45
2023-05-01T13:35:29.852Z,3.20
2023-05-01T13:37:57.181Z,9.13
2023-05-01T13:40:26.956Z,4.50
2023-05-01T13:42:54.686Z,5.97
2023-05-01T13:45:22.243Z,4.30
2023-05-01T13:47:52.222Z,4.13
2023-05-01T13:50:19.928Z,8.55
2023-05-01T13:52:48.880Z,7.05
2023-05-01T13:55:18.182Z,3.50
2023-05-01T13:57:45.623Z,5.93
2023-05-01T14:00:18.031Z,3.88
2023-05-01T14:02:54.049Z,6.25
2023-05-01T14:05:29.295Z,4.35
2023-05-01T14:08:00.060Z,4.93
2023-05-01T14:10:29.121Z,7.05
2023-05-01T14:12:59.041Z,6.22
2023-05-01T14:15:27.239Z,4.53
2023-05-01T14:17:54.704Z,5.30
2023-05-01T14:20:25.333Z,8.00
2023-05-01T14:22:53.788Z,4.28
2023-05-01T14:25:35.612Z,3.30
2023-05-01T14:28:08.216Z,5.03
2023-05-01T14:30:38.917Z,5.20
2023-05-01T14:33:11.782Z,8.23
2023-05-01T14:35:53.171Z,7.47
2023-05-01T14:38:21.837Z,5.00
2023-05-01T14:40:49.211Z,5.18
2023-05-01T14:43:24.537Z,5.85
2023-05-01T14:45:53.088Z,5.60
2023-05-01T14:48:25.526Z,4.28
2023-05-01T14:50:55.158Z,4.55
2023-05-01T14:53:23.601Z,5.32
2023-05-01T14:55:54.744Z,6.03
2023-05-01T14:58:23.343Z,4.85
2023-05-01T15:00:50.683Z,8.73
2023-05-01T15:03:18.968Z,4.95
2023-05-01T15:05:46.493Z,7.63
2023-05-01T15:08:13.798Z,8.40
2023-05-01T15:10:42.009Z,9.13
2023-05-01T15:13:09.748Z,5.60
2023-05-01T15:15:37.231Z,4.10
2023-05-01T15:18:04.591Z,3.97
2023-05-01T15:20:32.572Z,19.42
2023-05-01T15:22:59.825Z,11.35
2023-05-01T15:25:27.798Z,9.05
2023-05-01T15:27:55.604Z,5.65
2023-05-01T15:30:23.276Z,7.07
2023-05-01T15:32:50.737Z,7.72
2023-05-01T15:35:21.739Z,4.25
2023-05-01T15:37:51.008Z,6.60
2023-05-01T15:40:19.898Z,5.10
2023-05-01T15:42:48.492Z,18.25
2023-05-01T15:45:16.050Z,13.52
2023-05-01T15:47:43.524Z,5.68
2023-05-01T15:50:12.319Z,10.60
2023-05-01T15:52:39.989Z,9.80
2023-05-01T15:55:07.912Z,8.48
2023-05-01T15:57:36.007Z,3.90
2023-05-01T16:00:04.797Z,7.65
2023-05-01T16:02:33.473Z,5.03
2023-05-01T16:05:01.225Z,5.07
2023-05-01T16:07:31.856Z,5.80
2023-05-01T16:09:59.621Z,5.85
2023-05-01T16:12:30.550Z,7.03
2023-05-01T16:14:57.987Z,6.97
2023-05-01T16:17:28.359Z,6.43
2023-05-01T16:19:56.099Z,8.70
2023-05-01T16:22:23.758Z,11.48
2023-05-01T16:24:51.136Z,8.13
2023-05-01T16:27:19.512Z,5.20
2023-05-01T16:29:47.132Z,4.13
2023-05-01T16:32:17.110Z,9.05
2023-05-01T16:34:44.913Z,4.72
2023-05-01T16:37:16.868Z,6.47
2023-05-01T16:39:44.398Z,4.18
2023-05-01T16:42:15.906Z,3.22
2023-05-01T16:44:43.278Z,6.05
2023-05-01T16:47:12.793Z,3.35
2023-05-01T16:49:42.420Z,5.60
2023-05-01T16:52:14.365Z,3.70
2023-05-01T16:54:41.955Z,10.15
2023-05-01T16:57:09.550Z,5.82
2023-05-01T16:59:38.977Z,6.65
2023-05-01T17:02:07.667Z,4.80
2023-05-01T17:04:35.568Z,4.85
2023-05-01T17:07:03.811Z,5.88
2023-05-01T17:09:31.385Z,4.35
2023-05-01T17:12:03.890Z,7.90
2023-05-01T17:14:31.617Z,9.35
2023-05-01T17:16:59.560Z,5.70
2023-05-01T17:19:27.492Z,6.47
2023-05-01T17:21:54.930Z,5.93
2023-05-01T17:24:23.055Z,7.93
2023-05-01T17:26:50.583Z,6.13
2023-05-01T17:29:17.957Z,7.95
2023-05-01T17:31:46.060Z,6.30
2023-05-01T17:34:13.922Z,6.25
2023-05-01T17:36:41.357Z,4.18
2023-05-01T17:39:09.141Z,5.28
2023-05-01T17:41:36.545Z,3.42
2023-05-01T17:44:04.036Z,5.10
2023-05-01T17:46:32.181Z,6.13
2023-05-01T17:49:01.005Z,7.22
2023-05-01T17:51:28.880Z,5.78
2023-05-01T17:53:56.514Z,5.45
2023-05-01T17:56:24.791Z,5.22
2023-05-01T17:58:52.375Z,5.85
2023-05-01T18:01:20.534Z,4.78
2023-05-01T18:03:49.528Z,7.68
2023-05-01T18:06:17.590Z,5.80
2023-05-01T18:08:44.878Z,4.60
2023-05-01T18:11:12.131Z,6.87
2023-05-01T18:13:40.162Z,6.83
2023-05-01T18:16:07.684Z,8.57
2023-05-01T18:18:36.781Z,9.67
2023-05-01T18:21:04.941Z,7.50
2023-05-01T18:23:32.238Z,8.23
2023-05-01T18:26:00.135Z,8.13
2023-05-01T18:28:27.743Z,7.03
2023-05-01T18:30:55.337Z,10.63
2023-05-01T18:33:23.016Z,8.10
2023-05-01T18:35:50.621Z,6.87
2023-05-01T18:38:18.223Z,8.57
2023-05-01T18:40:45.737Z,10.27
2023-05-01T18:43:14.494Z,17.50
2023-05-01T18:45:41.986Z,19.37
2023-05-01T18:48:09.726Z,19.27
2023-05-01T18:50:37.088Z,16.13
2023-05-01T18:53:05.001Z,15.93
2023-05-01T18:55:33.563Z,17.03
2023-05-01T18:58:02.245Z,19.37
2023-05-01T19:00:33.295Z,30.33
2023-05-01T19:03:00.728Z,23.33
2023-05-01T19:05:28.853Z,12.57
2023-05-01T19:08:00.884Z,9.63
2023-05-01T19:10:28.839Z,14.40
2023-05-01T19:12:56.393Z,17.73
2023-05-01T19:15:23.681Z,11.53
2023-05-01T19:17:51.468Z,10.40
2023-05-01T19:20:18.990Z,11.73
2023-05-01T19:22:46.916Z,10.83
2023-05-01T19:25:14.307Z,12.93
2023-05-01T19:27:42.462Z,14.23
2023-05-01T19:30:10.470Z,15.60
2023-05-01T19:32:37.921Z,15.27
2023-05-01T19:35:05.883Z,11.63
2023-05-01T19:37:33.208Z,13.67
2023-05-01T19:40:01.372Z,13.47
2023-05-01T19:42:32.666Z,11.57
2023-05-01T19:45:00.021Z,11.17
2023-05-01T19:47:27.626Z,13.87
2023-05-01T19:49:55.000Z,14.37
2023-05-01T19:52:22.430Z,10.80
2023-05-01T19:54:50.334Z,8.40
2023-05-01T19:57:18.031Z,10.23
2023-05-01T19:59:45.662Z,11.23
2023-05-01T20:02:13.177Z,12.53
2023-05-01T20:04:40.662Z,11.03
2023-05-01T20:07:08.232Z,27.80
2023-05-01T20:09:36.161Z,26.27
2023-05-01T20:12:03.628Z,15.57
2023-05-01T20:14:33.462Z,13.80
2023-05-01T20:17:02.090Z,14.43
2023-05-01T20:19:30.315Z,11.10
2023-05-01T20:21:57.960Z,13.80
2023-05-01T20:24:25.412Z,9.47
2023-05-01T20:26:56.149Z,9.20
2023-05-01T20:29:23.518Z,12.13
2023-05-01T20:31:52.692Z,8.07
2023-05-01T20:34:23.071Z,11.37
2023-05-01T20:36:50.993Z,11.43
2023-05-01T20:39:18.353Z,9.27
2023-05-01T20:41:48.377Z,17.07
2023-05-01T20:44:16.421Z,18.53
2023-05-01T20:46:44.997Z,11.57
2023-05-01T20:49:15.206Z,9.93
2023-05-01T20:51:43.515Z,11.70
2023-05-01T20:54:11.289Z,16.80
2023-05-01T20:56:42.639Z,17.37
2023-05-01T20:59:10.015Z,21.27
2023-05-01T21:01:37.440Z,16.73
2023-05-01T21:04:06.654Z,15.77
2023-05-01T21:06:34.096Z,16.20
2023-05-01T21:09:07.242Z,14.20
2023-05-01T21:11:34.552Z,17.50
2023-05-01T21:14:02.132Z,21.40
2023-05-01T21:16:29.676Z,21.77
2023-05-01T21:18:56.978Z,19.43
2023-05-01T21:21:27.347Z,20.33
2023-05-01T21:23:55.435Z,20.90
2023-05-01T21:26:22.741Z,19.30
2023-05-01T21:28:50.294Z,19.90
2023-05-01T21:31:18.403Z,22.27
2023-05-01T21:33:46.890Z,19.33
2023-05-01T21:36:18.390Z,19.87
2023-05-01T21:38:46.293Z,22.80
2023-05-01T21:41:15.860Z,22.70
2023-05-01T21:43:44.993Z,26.50
2023-05-01T21:46:17.419Z,26.77
2023-05-01T21:48:51.590Z,24.27
2023-05-01T21:51:19.312Z,24.87
2023-05-01T21:53:46.811Z,22.07
2023-05-01T21:56:15.520Z,21.13
2023-05-01T21:58:43.031Z,24.03
2023-05-01T22:01:13.635Z,19.03
2023-05-01T22:03:41.880Z,18.83
2023-05-01T22:06:09.522Z,17.83
2023-05-01T22:08:36.947Z,17.20
2023-05-01T22:11:05.473Z,15.43
2023-05-01T22:13:33.904Z,15.30
2023-05-01T22:16:01.484Z,14.83
2023-05-01T22:18:32.243Z,18.03
2023-05-01T22:21:00.392Z,16.73
2023-05-01T22:23:28.381Z,16.03
2023-05-01T22:26:00.378Z,17.73
2023-05-01T22:28:28.776Z,16.37
2023-05-01T22:30:56.096Z,18.73
2023-05-01T22:33:23.608Z,19.43
2023-05-01T22:35:50.874Z,16.70
2023-05-01T22:38:18.443Z,13.00
2023-05-01T22:40:46.526Z,10.70
2023-05-01T22:43:13.861Z,10.43
2023-05-01T22:45:41.115Z,15.80
2023-05-01T22:48:09.286Z,7.00
2023-05-01T22:50:36.564Z,8.47
2023-05-01T22:53:04.210Z,7.53
2023-05-01T22:55:31.702Z,5.70
2023-05-01T22:57:59.037Z,6.30
2023-05-01T23:00:27.042Z,6.80
2023-05-01T23:02:59.448Z,5.77
2023-05-01T23:05:27.485Z,7.53
2023-05-01T23:07:54.774Z,6.50
2023-05-01T23:10:27.296Z,12.07
2023-05-01T23:12:54.854Z,8.97
2023-05-01T23:15:26.315Z,5.80
2023-05-01T23:17:53.972Z,7.67
2023-05-01T23:20:23.892Z,5.93
2023-05-01T23:22:52.024Z,4.83
2023-05-01T23:25:28.661Z,5.57
2023-05-01T23:27:57.300Z,7.63
2023-05-01T23:30:24.801Z,6.70
2023-05-01T23:32:52.370Z,5.17
2023-05-01T23:35:25.739Z,5.40
2023-05-01T23:37:54.135Z,5.70
2023-05-01T23:40:21.987Z,6.17
2023-05-01T23:42:50.599Z,5.67
2023-05-01T23:45:18.265Z,7.53
2023-05-01T23:47:45.656Z,6.03
2023-05-01T23:50:13.036Z,5.17
2023-05-01T23:52:40.382Z,5.50
2023-05-01T23:55:08.073Z,6.37
2023-05-01T23:57:35.363Z,8.60
